Flight Track Log - Related Links

Times and Time Zones

All times are in EDT time to prevent confusion due to time zone crossing. See the UAL1839 flight status page for this flight to view local times or setup timezone preferences in your user account.

Time Position Orientation Groundspeed Altitude Reporting Facility
EDT Latitude Longitude Course Direction KTS MPH feet Rate Location/Type
Mon 04:33:32 PM 42.2289 -83.3539 17° North 153 176 1,500  Level Cleveland Center
Mon 04:34:58 PM 42.2961 -83.3258 334° Northwest 191 220 4,400 2,082 Climbing Cleveland Center
Mon 04:35:59 PM 42.3453 -83.3589 282° West 245 282 6,600 1,899 Climbing Cleveland Center
Mon 04:36:17 PM 42.3489 -83.3814 274° West 274 315 6,900 2,613 Climbing Cleveland Center
Mon 04:37:01 PM 42.3531 -83.4661 281° West 283 326 9,300 2,746 Climbing Cleveland Center
Mon 04:37:16 PM 42.3567 -83.4914 278° West 287 330 9,600 1,280 Climbing Cleveland Center
Mon 04:38:16 PM 42.3683 -83.6100 278° West 352 405 10,900 1,796 Climbing Cleveland Center
Mon 04:39:33 PM 42.3850 -83.7660 277° West 344 396 13,700 1,323 Climbing FlightAware ADS-B
Mon 04:40:23 PM 42.3930 -83.8530 279° West 344 396 13,700 2,200 Level FlightAware ADS-B
Mon 04:41:03 PM 42.4050 -83.9620 278° West 356 410 17,000 3,040 Climbing FlightAware ADS-B
Mon 04:41:38 PM 42.4130 -84.0420 277° West 382 440 17,500 1,129 Climbing FlightAware ADS-B
Mon 04:42:28 PM 42.4240 -84.1610 274° West 401 461 18,600 1,600 Climbing FlightAware ADS-B
Mon 04:43:08 PM 42.4300 -84.2690 272° West 405 466 19,900 1,694 Climbing FlightAware ADS-B
Mon 04:43:53 PM 42.4330 -84.3840 272° West 417 480 21,000 1,412 Climbing FlightAware ADS-B
Mon 04:44:33 PM 42.4350 -84.4870 272° West 426 490 21,900 1,425 Climbing FlightAware ADS-B
Mon 04:45:13 PM 42.4380 -84.5990 272° West 431 496 22,900 1,553 Climbing FlightAware ADS-B
Mon 04:45:58 PM 42.4410 -84.7210 272° West 431 496 24,100 1,412 Climbing FlightAware ADS-B
Mon 04:46:38 PM 42.4440 -84.8280 271° West 439 505 24,900 1,200 Climbing FlightAware ADS-B
Mon 04:47:23 PM 42.4460 -84.9550 272° West 445 512 25,800 1,271 Climbing FlightAware ADS-B
Mon 04:48:03 PM 42.4490 -85.0660 271° West 449 517 26,700 1,500 Climbing FlightAware ADS-B
Mon 04:48:43 PM 42.4510 -85.1780 272° West 443 510 27,800 1,200 Climbing FlightAware ADS-B
Mon 04:49:33 PM 42.4540 -85.3120 271° West 449 517 28,500 733 Climbing FlightAware ADS-B
Mon 04:50:13 PM 42.4560 -85.4260 271° West 460 529 28,900 600 Climbing FlightAware ADS-B
Mon 04:50:53 PM 42.4580 -85.5430 271° West 468 539 29,300 776 Climbing FlightAware ADS-B
Mon 04:51:38 PM 42.4600 -85.6760 271° West 473 544 30,000 847 Climbing FlightAware ADS-B
Mon 04:52:18 PM 42.4620 -85.7970 271° West 479 551 30,500 750 Climbing FlightAware ADS-B
Mon 04:52:58 PM 42.4640 -85.9150 271° West 481 554 31,000 847 Climbing FlightAware ADS-B
Mon 04:53:43 PM 42.4650 -86.0540 265° West 480 552 31,700 918 Climbing FlightAware ADS-B
Mon 04:54:23 PM 42.4580 -86.1690 261° West 462 532 32,300 918 Climbing FlightAware ADS-B
Mon 04:55:08 PM 42.4430 -86.2930 260° West 460 529 33,000 635 Climbing FlightAware ADS-B
Mon 04:55:48 PM 42.4290 -86.4000 260° West 459 528 33,200 525 Climbing FlightAware ADS-B
Mon 04:56:28 PM 42.4130 -86.5260 260° West 469 540 33,700 565 Climbing FlightAware ADS-B
Mon 04:57:13 PM 42.3970 -86.6520 260° West 473 544 34,000 212 Climbing FlightAware ADS-B
Mon 04:57:53 PM 42.3810 -86.7750 260° West 480 552 34,000  Level FlightAware ADS-B
Mon 04:58:38 PM 42.3640 -86.9060 260° West 479 551 34,000  Level FlightAware ADS-B
Mon 04:59:18 PM 42.3490 -87.0190 260° West 479 551 34,000  Level FlightAware ADS-B
Mon 04:59:58 PM 42.3340 -87.1390 260° West 479 551 34,000  Level FlightAware ADS-B
Mon 05:00:43 PM 42.3160 -87.2710 259° West 479 551 34,000  Level FlightAware ADS-B
Mon 05:01:23 PM 42.2990 -87.3930 260° West 479 551 34,000  Level FlightAware ADS-B
Mon 05:02:08 PM 42.2820 -87.5210 259° West 478 550 34,000  Level FlightAware ADS-B
Mon 05:02:48 PM 42.2680 -87.6170 259° West 478 550 34,000  Level FlightAware ADS-B
Mon 05:03:28 PM 42.2540 -87.7160 259° West 478 550 34,000  Level FlightAware ADS-B
Mon 05:04:13 PM 42.2360 -87.8410 264° West 478 550 34,000  Level FlightAware ADS-B
Mon 05:04:48 PM 42.2250 -87.9820 269° West 495 570 34,000  Level FlightAware ADS-B
Mon 05:05:33 PM 42.2240 -88.1000 269° West 495 570 34,000  Level FlightAware ADS-B
Mon 05:06:18 PM 42.2220 -88.2320 269° West 495 570 34,000  Level FlightAware ADS-B
Mon 05:06:58 PM 42.2210 -88.3370 269° West 495 570 34,000  Level FlightAware ADS-B
Mon 05:07:38 PM 42.2200 -88.4420 288° West 495 570 34,000  Level FlightAware ADS-B
Mon 05:08:37 PM 42.2778 -88.6847 274° West 511 588 34,000  Level Chicago Center
Mon 05:09:37 PM 42.2869 -88.8728 276° West 499 574 34,000  Level Chicago Center
Mon 05:10:37 PM 42.3000 -89.0494 275° West 491 565 34,000  Level Chicago Center
Mon 05:11:37 PM 42.3131 -89.2403 276° West 502 578 34,000  Level Chicago Center
Mon 05:12:37 PM 42.3256 -89.4172 275° West 497 572 34,000  Level Chicago Center
Mon 05:13:37 PM 42.3378 -89.5969 275° West 487 560 34,000  Level Chicago Center
Mon 05:14:37 PM 42.3497 -89.7769 275° West 482 555 34,000  Level Chicago Center
Mon 05:15:37 PM 42.3614 -89.9483 274° West 482 555 34,000  Level Chicago Center
Mon 05:16:37 PM 42.3708 -90.1283 275° West 476 548 34,000  Level Chicago Center
Mon 05:17:37 PM 42.3819 -90.3056 274° West 482 555 34,000  Level Chicago Center
Mon 05:18:37 PM 42.3908 -90.4800 273° West 482 555 34,000  Level Chicago Center
Mon 05:19:37 PM 42.3972 -90.6517 276° West 476 548 34,000  Level Chicago Center
Mon 05:20:37 PM 42.4097 -90.8261 276° West 471 542 34,000  Level Chicago Center
Mon 05:21:37 PM 42.4222 -90.9925 276° West 460 529 34,000  Level Chicago Center
Mon 05:22:37 PM 42.4344 -91.1561 275° West 454 522 34,000  Level Chicago Center
Mon 05:23:37 PM 42.4461 -91.3222 275° West 449 517 34,000  Level Chicago Center
Mon 05:24:37 PM 42.4558 -91.4831 276° West 444 511 34,000  Level Chicago Center
Mon 05:25:37 PM 42.4672 -91.6439 276° West 439 505 34,000  Level Chicago Center
Mon 05:26:37 PM 42.4786 -91.8047 274° West 439 505 34,000  Level Chicago Center
Mon 05:27:37 PM 42.4875 -91.9683 275° West 439 505 34,000  Level Chicago Center
Mon 05:28:37 PM 42.4983 -92.1322 274° West 444 511 34,000  Level Chicago Center
Mon 05:29:07 PM 42.5031 -92.2292 275° West 436 502 34,000  Level Minneapolis Center
Mon 05:30:08 PM 42.5136 -92.3925 274° West 437 503 34,000  Level Minneapolis Center
Mon 05:31:10 PM 42.5222 -92.5467 275° West 429 494 34,000  Level Minneapolis Center
Mon 05:32:11 PM 42.5317 -92.6992 274° West 419 482 34,000  Level Minneapolis Center
Mon 05:33:13 PM 42.5397 -92.8533 275° West 415 478 34,000  Level Minneapolis Center
Mon 05:34:14 PM 42.5486 -93.0067 274° West 413 475 34,000  Level Minneapolis Center
Mon 05:35:16 PM 42.5564 -93.1600 274° West 411 473 34,000  Level Minneapolis Center
Mon 05:36:17 PM 42.5661 -93.3447 274° West 412 474 34,000  Level Minneapolis Center
Mon 05:37:19 PM 42.5744 -93.4950 274° West 407 468 34,000  Level Minneapolis Center
Mon 05:38:20 PM 42.5817 -93.6419 274° West 397 457 34,000  Level Minneapolis Center
Mon 05:39:22 PM 42.5886 -93.7908 274° West 398 458 34,000  Level Minneapolis Center
Mon 05:40:23 PM 42.5958 -93.9406 274° West 401 461 34,000  Level Minneapolis Center
Mon 05:41:25 PM 42.6028 -94.0928 273° West 404 465 34,000  Level Minneapolis Center
Mon 05:42:26 PM 42.6108 -94.2758 271° West 408 470 34,000  Level Minneapolis Center
Mon 05:43:28 PM 42.6122 -94.4308 268° West 413 475 34,000  Level Minneapolis Center
Mon 05:44:29 PM 42.6083 -94.5867 268° West 417 480 34,000  Level Minneapolis Center
Mon 05:45:31 PM 42.6050 -94.7494 268° West 410 472 34,000  Level Minneapolis Center
Mon 05:46:32 PM 42.6014 -94.9036 269° West 409 471 34,000  Level Minneapolis Center
Mon 05:47:34 PM 42.5989 -95.0572 269° West 409 471 34,000  Level Minneapolis Center
Mon 05:48:35 PM 42.5964 -95.2164 268° West 417 480 34,000  Level Minneapolis Center
Mon 05:49:37 PM 42.5928 -95.3706 268° West 413 475 34,000  Level Minneapolis Center
Mon 05:50:38 PM 42.5894 -95.5256 268° West 413 475 34,000  Level Minneapolis Center
Mon 05:51:40 PM 42.5853 -95.6800 268° West 412 474 34,000  Level Minneapolis Center
Mon 05:52:41 PM 42.5803 -95.8633 268° West 409 471 34,000  Level Minneapolis Center
Mon 05:53:43 PM 42.5761 -96.0183 268° West 412 474 34,000  Level Minneapolis Center
Mon 05:54:44 PM 42.5717 -96.1733 268° West 411 473 34,000  Level Minneapolis Center
Mon 05:55:46 PM 42.5675 -96.3264 267° West 410 472 34,000  Level Minneapolis Center
Mon 05:56:47 PM 42.5622 -96.4794 267° West 408 470 34,000  Level Minneapolis Center
Mon 05:57:49 PM 42.5569 -96.6308 268° West 406 467 34,000  Level Minneapolis Center
Mon 05:58:50 PM 42.5519 -96.7842 268° West 406 467 34,000  Level Minneapolis Center
Mon 05:59:52 PM 42.5464 -96.9686 267° West 408 470 34,000  Level Minneapolis Center
Mon 06:00:53 PM 42.5400 -97.1214 267° West 408 470 34,000  Level Minneapolis Center
Mon 06:01:55 PM 42.5333 -97.2742 267° West 408 470 34,000  Level Minneapolis Center
Mon 06:02:56 PM 42.5275 -97.4278 267° West 409 471 34,000  Level Minneapolis Center
Mon 06:03:58 PM 42.5208 -97.5806 267° West 408 470 34,000  Level Minneapolis Center
Mon 06:05:00 PM 42.5144 -97.7347 267° West 410 472 34,000  Level Minneapolis Center
Mon 06:06:01 PM 42.5083 -97.8900 267° West 410 472 34,000  Level Minneapolis Center
Mon 06:07:03 PM 42.5022 -98.0417 266° West 407 468 34,000  Level Minneapolis Center
Mon 06:08:04 PM 42.4928 -98.2250 266° West 408 470 34,000  Level Minneapolis Center
Mon 06:09:06 PM 42.4856 -98.3781 267° West 407 468 34,000  Level Minneapolis Center
Mon 06:10:07 PM 42.4789 -98.5331 266° West 410 472 34,000  Level Minneapolis Center
Mon 06:11:09 PM 42.4708 -98.6853 263° West 409 471 34,000  Level Minneapolis Center
Mon 06:12:10 PM 42.4564 -98.8375 262° West 408 470 34,000  Level Minneapolis Center
Mon 06:13:12 PM 42.4406 -98.9908 262° West 411 473 34,000  Level Minneapolis Center
Mon 06:14:13 PM 42.4250 -99.1428 262° West 410 472 34,000  Level Minneapolis Center
Mon 06:15:15 PM 42.4086 -99.2933 262° West 408 470 34,000  Level Minneapolis Center
Mon 06:15:53 PM 42.3964 -99.4150 262° West 407 468 34,000  Level Denver Center
Mon 06:16:55 PM 42.3800 -99.5644 262° West 404 465 34,000  Level Denver Center
Mon 06:17:57 PM 42.3647 -99.7081 262° West 402 463 34,000  Level Denver Center
Mon 06:18:59 PM 42.3467 -99.8761 262° West 403 464 34,000  Level Denver Center
Mon 06:20:00 PM 42.3317 -100.0169 261° West 400 460 34,000  Level Denver Center
Mon 06:21:02 PM 42.3131 -100.1833 261° West 401 461 34,000  Level Denver Center
Mon 06:22:04 PM 42.2969 -100.3272 261° West 404 465 34,000  Level Denver Center
Mon 06:23:06 PM 42.2775 -100.4939 262° West 403 464 34,000  Level Denver Center
Mon 06:24:08 PM 42.2619 -100.6367 261° West 403 464 34,000  Level Denver Center
Mon 06:25:09 PM 42.2450 -100.7789 261° West 403 464 34,000  Level Denver Center
Mon 06:26:11 PM 42.2250 -100.9453 261° West 404 465 34,000  Level Denver Center
Mon 06:27:13 PM 42.2086 -101.0875 261° West 402 463 34,000  Level Denver Center
Mon 06:28:15 PM 42.1881 -101.2536 261° West 403 464 34,000  Level Denver Center
Mon 06:29:17 PM 42.1711 -101.3964 260° West 404 465 34,000  Level Denver Center
Mon 06:30:18 PM 42.1500 -101.5642 261° West 407 468 34,000  Level Denver Center
Mon 06:31:20 PM 42.1325 -101.7072 260° West 406 467 34,000  Level Denver Center
Mon 06:32:22 PM 42.1114 -101.8753 260° West 407 468 34,000  Level Denver Center
Mon 06:33:23 PM 42.0931 -102.0203 260° West 410 472 34,000  Level Denver Center
Mon 06:34:55 PM 42.0601 -102.2670 260° West 412 474 34,000  Level FlightAware ADS-B
Mon 06:35:25 PM 42.0501 -102.3430 260° West 412 474 34,000  Level FlightAware ADS-B
Mon 06:35:58 PM 42.0391 -102.4270 260° West 412 474 34,000  Level FlightAware ADS-B
Mon 06:36:29 PM 42.0287 -102.5050 260° West 412 474 34,000  Level FlightAware ADS-B
Mon 06:36:59 PM 42.0187 -102.5810 260° West 411 473 34,000  Level FlightAware ADS-B
Mon 06:37:29 PM 42.0084 -102.6570 260° West 411 473 34,000  Level FlightAware ADS-B
Mon 06:38:00 PM 41.9982 -102.7320 260° West 410 472 34,000  Level FlightAware ADS-B
Mon 06:38:31 PM 41.9876 -102.8100 260° West 409 471 34,000  Level FlightAware ADS-B
Mon 06:39:01 PM 41.9773 -102.8850 260° West 409 471 34,000  Level FlightAware ADS-B
Mon 06:39:32 PM 41.9670 -102.9610 260° West 408 470 34,000  Level FlightAware ADS-B
Mon 06:40:02 PM 41.9566 -103.0370 259° West 408 470 34,000  Level FlightAware ADS-B
Mon 06:40:32 PM 41.9462 -103.1120 259° West 407 468 34,000  Level FlightAware ADS-B
Mon 06:41:03 PM 41.9357 -103.1870 259° West 407 468 34,000  Level FlightAware ADS-B
Mon 06:41:39 PM 41.9230 -103.2780 259° West 408 470 34,000  Level FlightAware ADS-B
Mon 06:42:12 PM 41.9117 -103.3590 259° West 412 474 34,000  Level FlightAware ADS-B
Mon 06:42:43 PM 41.9007 -103.4360 259° West 413 475 34,000  Level FlightAware ADS-B
Mon 06:42:58 PM 41.8950 -103.4740 253° West 414 476 34,000  Level FlightAware ADS-B
Mon 06:43:31 PM 41.8766 -103.5560 252° West 416 479 34,000  Level FlightAware ADS-B
Mon 06:44:08 PM 41.8551 -103.6460 252° West 417 480 34,000 179 Level FlightAware ADS-B
Mon 06:44:38 PM 41.8370 -103.7220 252° West 423 487 34,200 787 Climbing FlightAware ADS-B
Mon 06:45:09 PM 41.8187 -103.7980 252° West 422 486 34,800 1,065 Climbing FlightAware ADS-B
Mon 06:45:40 PM 41.8004 -103.8750 252° West 419 482 35,300 885 Climbing FlightAware ADS-B
Mon 06:46:10 PM 41.7825 -103.9490 252° West 417 480 35,700 700 Climbing FlightAware ADS-B
Mon 06:46:40 PM 41.7646 -104.0230 252° West 416 479 36,000 295 Climbing FlightAware ADS-B
Mon 06:47:11 PM 41.7462 -104.0990 252° West 416 479 36,000  Level FlightAware ADS-B
Mon 06:47:43 PM 41.7276 -104.1750 252° West 418 481 36,000  Level FlightAware ADS-B
Mon 06:48:17 PM 41.7069 -104.2600 252° West 418 481 36,000  Level FlightAware ADS-B
Mon 06:48:48 PM 41.6883 -104.3360 252° West 420 483 36,000  Level FlightAware ADS-B
Mon 06:49:18 PM 41.6701 -104.4100 252° West 419 482 36,000  Level FlightAware ADS-B
Mon 06:49:49 PM 41.6515 -104.4850 251° West 420 483 36,000  Level FlightAware ADS-B
Mon 06:50:20 PM 41.6322 -104.5620 252° West 422 486 36,000  Level FlightAware ADS-B
Mon 06:50:50 PM 41.6134 -104.6380 252° West 424 488 36,000  Level FlightAware ADS-B
Mon 06:51:21 PM 41.5949 -104.7130 252° West 424 488 36,000  Level FlightAware ADS-B
Mon 06:51:53 PM 41.5747 -104.7940 252° West 427 491 36,000  Level FlightAware ADS-B
Mon 06:52:23 PM 41.5559 -104.8690 251° West 428 493 36,000  Level FlightAware ADS-B
Mon 06:52:54 PM 41.5367 -104.9450 251° West 418 481 36,000  Level FlightAware ADS-B
Mon 06:53:24 PM 41.5182 -105.0180 251° West 416 479 36,000  Level FlightAware ADS-B
Mon 06:53:55 PM 41.4994 -105.0920 251° West 417 480 36,000  Level FlightAware ADS-B
Mon 06:54:25 PM 41.4807 -105.1650 251° West 419 482 36,000  Level FlightAware ADS-B
Mon 06:54:58 PM 41.4610 -105.2420 251° West 421 484 36,000  Level FlightAware ADS-B
Mon 06:55:34 PM 41.4373 -105.3360 251° West 422 486 36,000  Level FlightAware ADS-B
Mon 06:56:08 PM 41.4240 -105.3880 251° West 423 487 36,000  Level FlightAware ADS-B
Mon 06:56:48 PM 41.3930 -105.5100 251° West 429 494 36,000  Level FlightAware ADS-B
Mon 06:57:33 PM 41.3630 -105.6260 250° West 432 497 36,000  Level FlightAware ADS-B
Mon 06:58:13 PM 41.3390 -105.7130 252° West 432 497 36,000  Level FlightAware ADS-B
Mon 06:58:48 PM 41.3150 -105.8110 252° West 431 496 36,000  Level FlightAware ADS-B
Mon 06:59:33 PM 41.2870 -105.9250 252° West 432 497 36,000  Level FlightAware ADS-B
Mon 07:00:18 PM 41.2590 -106.0370 251° West 428 493 36,000  Level FlightAware ADS-B
Mon 07:01:03 PM 41.2330 -106.1390 252° West 414 476 36,000  Level FlightAware ADS-B
Mon 07:01:43 PM 41.2070 -106.2440 252° West 412 474 36,000  Level FlightAware ADS-B
Mon 07:02:28 PM 41.1790 -106.3560 251° West 421 484 36,000  Level FlightAware ADS-B
Mon 07:03:08 PM 41.1570 -106.4410 252° West 425 489 36,000  Level FlightAware ADS-B
Mon 07:03:48 PM 41.1300 -106.5510 251° West 428 493 36,000  Level FlightAware ADS-B
Mon 07:04:33 PM 41.1040 -106.6510 251° West 431 496 36,000  Level FlightAware ADS-B
Mon 07:05:13 PM 41.0790 -106.7460 251° West 431 496 36,000  Level FlightAware ADS-B
Mon 07:05:53 PM 41.0570 -106.8310 251° West 431 496 36,000  Level FlightAware ADS-B
Mon 07:06:38 PM 41.0350 -106.9160 251° West 431 496 36,000  Level FlightAware ADS-B
Mon 07:07:18 PM 41.0130 -107.0010 252° West 431 496 36,000  Level FlightAware ADS-B
Mon 07:08:03 PM 40.9860 -107.1080 251° West 431 496 36,000  Level FlightAware ADS-B
Mon 07:08:43 PM 40.9640 -107.1920 250° West 431 496 36,000  Level FlightAware ADS-B
Mon 07:09:23 PM 40.9410 -107.2770 251° West 431 496 36,000 -1,212 Level FlightAware ADS-B
Mon 07:10:22 PM 40.8867 -107.4856 251° West 410 472 34,000 -1,000 Descending Denver Center
Mon 07:11:23 PM 40.8444 -107.6453 250° West 412 474 34,000  Level Denver Center
Mon 07:12:25 PM 40.8072 -107.7828 251° West 414 476 34,000  Level Denver Center
Mon 07:13:26 PM 40.7706 -107.9211 250° West 416 479 34,000  Level Denver Center
Mon 07:14:28 PM 40.7306 -108.0672 250° West 416 479 34,000  Level Denver Center
Mon 07:15:30 PM 40.6867 -108.2297 250° West 420 483 34,000  Level Denver Center
Mon 07:16:31 PM 40.6483 -108.3683 250° West 421 484 34,000  Level Denver Center
Mon 07:17:33 PM 40.6039 -108.5319 250° West 425 489 34,000  Level Denver Center
Mon 07:18:34 PM 40.5644 -108.6736 250° West 428 493 34,000  Level Denver Center
Mon 07:19:36 PM 40.5189 -108.8375 250° West 429 494 34,000  Level Denver Center
Mon 07:20:42 PM 40.4789 -108.9783 250° West 430 495 34,000  Level Salt Lake Center
Mon 07:21:43 PM 40.4336 -109.1408 249° West 427 491 34,000  Level Salt Lake Center
Mon 07:22:40 PM 40.3939 -109.2797 250° West 427 491 34,000  Level Denver Center
Mon 07:23:42 PM 40.3547 -109.4175 249° West 425 489 34,000  Level Denver Center
Mon 07:24:44 PM 40.3089 -109.5775 249° West 422 486 34,000  Level Denver Center
Mon 07:25:49 PM 40.2631 -109.7364 249° West 420 483 34,000  Level Salt Lake Center
Mon 07:26:50 PM 40.2239 -109.8717 249° West 419 482 34,000  Level Salt Lake Center
Mon 07:27:51 PM 40.1847 -110.0067 249° West 417 480 34,000  Level Salt Lake Center
Mon 07:28:53 PM 40.1383 -110.1622 247° West 414 476 34,000  Level Salt Lake Center
Mon 07:29:54 PM 40.0944 -110.2942 245° Southwest 412 474 34,000  Level Salt Lake Center
Mon 07:30:55 PM 40.0392 -110.4481 246° West 416 479 34,000  Level Salt Lake Center
Mon 07:31:57 PM 39.9936 -110.5806 246° West 417 480 34,000  Level Salt Lake Center
Mon 07:32:58 PM 39.9481 -110.7122 246° West 417 480 34,000  Level Salt Lake Center
Mon 07:34:00 PM 39.8944 -110.8661 246° West 418 481 34,000  Level Salt Lake Center
Mon 07:35:01 PM 39.8492 -110.9964 245° Southwest 415 478 34,000  Level Salt Lake Center
Mon 07:36:02 PM 39.7950 -111.1489 245° Southwest 416 479 34,000  Level Salt Lake Center
Mon 07:37:04 PM 39.7467 -111.2842 245° Southwest 419 482 34,000  Level Salt Lake Center
Mon 07:38:05 PM 39.6975 -111.4225 245° Southwest 421 484 34,000  Level Salt Lake Center
Mon 07:39:48 PM 39.6080 -111.6680 245° Southwest 425 489 34,000  Level FlightAware ADS-B
Mon 07:40:28 PM 39.5750 -111.7610 245° Southwest 425 489 34,000  Level FlightAware ADS-B
Mon 07:41:13 PM 39.5370 -111.8660 245° Southwest 425 489 34,000  Level FlightAware ADS-B
Mon 07:41:53 PM 39.5030 -111.9600 244° Southwest 425 489 34,000  Level FlightAware ADS-B
Mon 07:42:33 PM 39.4700 -112.0490 245° Southwest 425 489 34,000  Level FlightAware ADS-B
Mon 07:43:18 PM 39.4330 -112.1510 245° Southwest 424 488 34,000  Level FlightAware ADS-B
Mon 07:43:58 PM 39.3980 -112.2470 244° Southwest 424 488 34,000  Level FlightAware ADS-B
Mon 07:44:38 PM 39.3640 -112.3390 244° Southwest 424 488 34,000  Level FlightAware ADS-B
Mon 07:45:23 PM 39.3270 -112.4380 247° West 426 490 34,000  Level FlightAware ADS-B
Mon 07:46:03 PM 39.2960 -112.5320 254° West 423 487 34,000  Level FlightAware ADS-B
Mon 07:46:43 PM 39.2750 -112.6290 254° West 423 487 34,000  Level FlightAware ADS-B
Mon 07:47:28 PM 39.2500 -112.7420 254° West 425 489 34,000  Level FlightAware ADS-B
Mon 07:48:08 PM 39.2290 -112.8380 253° West 425 489 34,000  Level FlightAware ADS-B
Mon 07:48:53 PM 39.2040 -112.9450 255° West 425 489 34,000  Level FlightAware ADS-B
Mon 07:49:33 PM 39.1830 -113.0430 253° West 425 489 34,000  Level FlightAware ADS-B
Mon 07:50:28 PM 39.1560 -113.1600 253° West 425 489 34,000  Level FlightAware ADS-B
Mon 07:51:13 PM 39.1310 -113.2630 253° West 425 489 34,000  Level FlightAware ADS-B
Mon 07:51:53 PM 39.1120 -113.3450 253° West 425 489 34,000  Level FlightAware ADS-B
Mon 07:52:38 PM 39.0920 -113.4270 254° West 425 489 34,000  Level FlightAware ADS-B
Mon 07:53:18 PM 39.0730 -113.5100 253° West 425 489 34,000  Level FlightAware ADS-B
Mon 07:53:58 PM 39.0530 -113.5920 253° West 425 489 34,000  Level FlightAware ADS-B
Mon 07:54:43 PM 39.0290 -113.6950 255° West 425 489 34,000  Level FlightAware ADS-B
Mon 07:55:28 PM 38.9903 -113.8842 253° West 423 487 34,000  Level Salt Lake Center
Mon 07:56:29 PM 38.9561 -114.0269 253° West 421 484 34,000  Level Salt Lake Center
Mon 07:57:30 PM 38.9225 -114.1706 253° West 421 484 34,000  Level Salt Lake Center
Mon 07:58:31 PM 38.8889 -114.3128 253° West 420 483 34,000  Level Salt Lake Center
Mon 07:59:33 PM 38.8547 -114.4561 253° West 420 483 34,000  Level Salt Lake Center
Mon 08:00:34 PM 38.8139 -114.6294 252° West 424 488 34,000  Level Salt Lake Center
Mon 08:01:35 PM 38.7783 -114.7722 253° West 423 487 34,000  Level Salt Lake Center
Mon 08:02:36 PM 38.7433 -114.9167 252° West 425 489 34,000  Level Salt Lake Center
Mon 08:03:38 PM 38.7067 -115.0622 252° West 428 493 34,000  Level Salt Lake Center
Mon 08:04:39 PM 38.6703 -115.2072 253° West 429 494 34,000  Level Salt Lake Center
Mon 08:05:40 PM 38.6325 -115.3608 252° West 427 491 34,000  Level Salt Lake Center
Mon 08:06:41 PM 38.5969 -115.5042 253° West 424 488 34,000  Level Salt Lake Center
Mon 08:07:42 PM 38.5617 -115.6475 252° West 424 488 34,000  Level Salt Lake Center
Mon 08:08:44 PM 38.5253 -115.7917 252° West 426 490 34,000  Level Salt Lake Center
Mon 08:09:45 PM 38.4883 -115.9353 252° West 426 490 34,000  Level Salt Lake Center
Mon 08:10:46 PM 38.4517 -116.0786 252° West 425 489 34,000  Level Salt Lake Center
Mon 08:11:47 PM 38.4153 -116.2211 252° West 424 488 34,000  Level Salt Lake Center
Mon 08:12:34 PM 38.3861 -116.3342 251° West 423 487 34,000  Level Oakland Center
Mon 08:13:36 PM 38.3486 -116.4767 252° West 423 487 34,000  Level Oakland Center
Mon 08:14:37 PM 38.3119 -116.6194 252° West 424 488 34,000  Level Oakland Center
Mon 08:15:38 PM 38.2744 -116.7628 251° West 426 490 34,000  Level Oakland Center
Mon 08:16:39 PM 38.2292 -116.9339 250° West 426 490 34,000  Level Oakland Center
Mon 08:16:54 PM 38.2211 -116.9628 254° West 425 489 34,000  Level Salt Lake Center
Mon 08:17:55 PM 38.1894 -117.1042 259° West 421 484 34,000  Level Salt Lake Center
Mon 08:18:42 PM 38.1719 -117.2194 262° West 432 497 34,000  Level Oakland Center
Mon 08:19:43 PM 38.1547 -117.3661 261° West 422 486 34,000  Level Oakland Center
Mon 08:20:44 PM 38.1367 -117.5036 260° West 418 481 34,000  Level Oakland Center
Mon 08:21:45 PM 38.1175 -117.6481 261° West 417 480 34,000  Level Oakland Center
Mon 08:22:46 PM 38.0944 -117.8222 260° West 417 480 34,000  Level Oakland Center
Mon 08:23:47 PM 38.0744 -117.9675 260° West 418 481 34,000  Level Oakland Center
Mon 08:24:49 PM 38.0547 -118.1114 260° West 416 479 34,000  Level Oakland Center
Mon 08:25:50 PM 38.0342 -118.2572 260° West 418 481 34,000  Level Oakland Center
Mon 08:26:51 PM 38.0136 -118.4044 260° West 422 486 34,000  Level Oakland Center
Mon 08:27:52 PM 37.9931 -118.5514 260° West 423 487 34,000  Level Oakland Center
Mon 08:28:53 PM 37.9722 -118.6978 260° West 423 487 34,000  Level Oakland Center
Mon 08:30:53 PM 37.9290 -119.0030 260° West 424 488 34,000  Level FlightAware ADS-B
Mon 08:31:33 PM 37.9150 -119.1000 259° West 425 489 34,000  Level FlightAware ADS-B
Mon 08:32:18 PM 37.8980 -119.2140 259° West 425 489 34,000  Level FlightAware ADS-B
Mon 08:32:58 PM 37.8840 -119.3070 259° West 425 489 34,000  Level FlightAware ADS-B
Mon 08:33:53 PM 37.8660 -119.4260 260° West 424 488 34,000 -660 Level FlightAware ADS-B
Mon 08:34:38 PM 37.8480 -119.5520 259° West 426 490 32,900 -1,271 Descending FlightAware ADS-B
Mon 08:35:18 PM 37.8330 -119.6520 259° West 424 488 32,200 -675 Descending FlightAware ADS-B
Mon 08:35:58 PM 37.8180 -119.7510 259° West 427 491 32,000 -141 Descending FlightAware ADS-B
Mon 08:36:43 PM 37.8010 -119.8580 259° West 428 493 32,000  Level FlightAware ADS-B
Mon 08:37:23 PM 37.7860 -119.9560 259° West 429 494 32,000  Level FlightAware ADS-B
Mon 08:37:58 PM 37.7740 -120.0370 259° West 429 494 32,000 -565 Level FlightAware ADS-B
Mon 08:38:48 PM 37.7530 -120.1680 259° West 430 495 31,200 -933 Descending FlightAware ADS-B
Mon 08:39:28 PM 37.7380 -120.2680 259° West 434 499 30,600 -988 Descending FlightAware ADS-B
Mon 08:40:13 PM 37.7210 -120.3780 258° West 438 504 29,800 -1,553 Descending FlightAware ADS-B
Mon 08:40:53 PM 37.7050 -120.4750 258° West 431 496 28,400 -2,250 Descending FlightAware ADS-B
Mon 08:41:33 PM 37.6890 -120.5730 259° West 420 483 26,800 -2,329 Descending FlightAware ADS-B
Mon 08:42:18 PM 37.6730 -120.6760 258° West 408 470 25,100 -2,329 Descending FlightAware ADS-B
Mon 08:42:58 PM 37.6580 -120.7680 259° West 399 459 23,500 -2,400 Descending FlightAware ADS-B
Mon 08:43:43 PM 37.6410 -120.8750 258° West 391 450 21,700 -2,329 Descending FlightAware ADS-B
Mon 08:44:23 PM 37.6270 -120.9600 261° West 388 447 20,200 -1,275 Descending FlightAware ADS-B
Mon 08:45:03 PM 37.6170 -121.0420 262° West 388 447 20,000 -141 Descending FlightAware ADS-B
Mon 08:45:48 PM 37.6080 -121.1180 261° West 388 447 20,000  Level FlightAware ADS-B
Mon 08:46:28 PM 37.5980 -121.1950 261° West 388 447 20,000  Level FlightAware ADS-B
Mon 08:47:13 PM 37.5860 -121.2900 264° West 388 447 20,000 -4,518 Level FlightAware ADS-B
Mon 08:47:53 PM 37.5770 -121.3970 258° West 352 405 13,600 -7,770 Descending FlightAware ADS-B
Mon 08:48:14 PM 37.5700 -121.4386 266° West 358 412 12,100 -2,520 Descending Oakland Center
Mon 08:48:43 PM 37.5667 -121.5000 253° West 346 398 11,500 -894 Descending Northern Cal TRACON
Mon 08:49:48 PM 37.5360 -121.6230 255° West 294 338 10,700 -571 Descending FlightAware ADS-B
Mon 08:50:28 PM 37.5250 -121.6730 256° West 293 337 10,500 -1,200 Descending FlightAware ADS-B
Mon 08:50:43 PM 37.5167 -121.7167 256° West 292 336 9,600 -1,520 Descending Northern Cal TRACON
Mon 08:51:43 PM 37.5000 -121.8000 258° West 280 322 8,600 -850 Descending Northern Cal TRACON
Mon 08:52:43 PM 37.4833 -121.9000 284° West 289 333 7,900 -950 Descending Northern Cal TRACON
Mon 08:53:43 PM 37.5000 -121.9833 290° West 258 297 6,700 -1,132 Descending Northern Cal TRACON
Mon 08:55:22 PM 37.5344 -122.1044 304° West 247 284 4,900 -1,300 Descending Oakland Center
Mon 08:55:43 PM 37.5500 -122.1333 280° West 219 252 4,100 -1,082 Descending Northern Cal TRACON
Mon 08:56:23 PM 37.5556 -122.1725 292° West 225 259 3,800 -1,248 Descending Oakland Center
Mon 08:57:24 PM 37.5781 -122.2431 284° West 195 224 2,000 -1,377 Descending Oakland Center
Mon 08:58:25 PM 37.5892 -122.2981 294° West 174 200 1,000 -885 Descending Oakland Center
Mon 08:59:26 PM 37.6056 -122.3436 301° West 154 177 200 -787 Descending Oakland Center
Mon 09:02:00 PM 37.6167 -122.3667 301° West  Level FlightAware Approximate

Login

Don't have an account? Register now (free) for customized features, flight alerts, and more!